TJSJ/SJU METAR and TAF weather

Enter ICAO airport designator
Station Type Date Time Source
TJSJ METAR 2022/01/18 06:56 UTC NOAA

TJSJ 180656Z 19003KT 10SM CLR 23/19 A3001 RMK AO2 SLP161 T02280194


Station Type Date Time Source
TJSJ Decoded METAR 2022/01/18 06:56 UTC NOAA

San Juan, Luis Munoz Marin International Airport, PR, United States (TJSJ) 18-27N 066-00W
Jan 18, 2022 - 01:56 AM EST / 2022.01.18 0656 UTC
Wind: from the S (190 degrees) at 3 MPH (3 KT):0
Visibility: 10 mile(s):0
Sky conditions: clear
Temperature: 73.0 F (22.8 C)
Dew Point: 66.9 F (19.4 C)
Relative Humidity: 81%
Pressure (altimeter): 30.01 in. Hg (1016 hPa)
ob: TJSJ 180656Z 19003KT 10SM CLR 23/19 A3001 RMK AO2 SLP161 T02280194
cycle: 7

Station Type Date Time Source
TJSJ TAF 2022/01/18 06:36 UTC NOAA

TAF TJSJ 180531Z 1806/1906 VRB03KT P6SM FEW035
FM181400 09012KT P6SM SCT030
FM182200 09008KT P6SM FEW035 SCT050

Example: see airport list